Ciudad del Carmen International Airport
MMCE : now visible

Airfield :











YOU CAN JOIN US ON...

 
LOGIN :

Register | Disclaimer

   EN    FR    IT 

 









Legend :    VFR   Marginal VFR   IFR   Intensive IFR   Very Intensive IFR
Visi :
Ceiling :
>= 8 km
>= 3000ft
5 to 8 km
1000 to 3000 ft
1500m to 5 km
500 to 1000 ft
800 to 1500m
200 to 500 ft
< 800m
< 200 ft
Symbols :   Thunderstorms  Fog  Heavy snow  Heavy precipitations  Wind > 20 kt






- Airport Elevation : 10 ft
- IATA code : CME


MMCE - Ciudad del Carmen International

CURRENT METAR :
  • 141648Z 14007KT 7SM FEW015 SCT200 30/23 A2994 RMK 8/108

EXPIRED METARs :
  • 141545Z 12008KT 7SM SCT200 29/24 A2996 RMK 8/008
  • 141447Z 13005KT 7SM FEW030 28/24 A2996 RMK SLP142 52023 907 8/500

TAF TAF MMCE
Valid from the 14 at 18:00 until the 15 at 18:00 UTC


141728Z 1418/1518 14010KT 6SM HZ SCT015 SCT300
FM142100 36015KT P6SM SCT015CB SCT100 BKN300
TEMPO 1423/1503 3SM TSRA BKN015CB
FM150400 03006KT 6SM HZ SCT015 BKN100
BECMG 1506/1507 09005KT SCT100
FM151200 11008KT 6SM HZ SCT015SCT300



MET'MAP, your aeronautical weather chart ! - Copyright ORBIFLY December 2007 - Disclaimer

ORBIFLY MET'MAP TEAM :

Programming & Development : Alexandra Zaïnal
Concept & Development : Baudouin d'Aumeries
Co-Development & Prog : Marc-Olivier Méhu
Technical & hardware support : Manuel Goepfert

Contact : metmap@orbifly.com




SOURCES & CREDITS :

   NOAA       Earth
Advisory